Wetterdaten: Woche 31.10.11 - 06.11.11 (KW44)
Datum Zeit Temp. A. Feuchte A. Luftdruck Regen Wind Richtung Taupunkt Windchill Windben
31.10.2011 00:00 7,4 C 84 % 1023,4 hPa 0,0 l/m 0,0 km/h N 4,9 C 7,4 C 0,0 km/h
31.10.2011 01:00 6,7 C 84 % 1023,6 hPa 0,0 l/m 0,0 km/h N 4,1 C 6,7 C 0,0 km/h
31.10.2011 02:00 6,0 C 84 % 1023,4 hPa 0,0 l/m 0,0 km/h N 3,6 C 6,0 C 0,0 km/h
31.10.2011 03:00 5,8 C 84 % 1023,3 hPa 0,0 l/m 0,0 km/h N 3,3 C 5,8 C 0,0 km/h
31.10.2011 04:00 5,7 C 84 % 1023,5 hPa 0,0 l/m 0,0 km/h N 3,2 C 5,7 C 0,0 km/h
31.10.2011 05:00 5,4 C 83 % 1023,5 hPa 0,0 l/m 0,0 km/h N 2,7 C 5,4 C 0,0 km/h
31.10.2011 06:00 5,4 C 83 % 1023,5 hPa 0,0 l/m 0,0 km/h N 2,8 C 5,4 C 0,0 km/h
31.10.2011 07:00 5,8 C 82 % 1023,7 hPa 0,0 l/m 0,0 km/h N 3,1 C 5,8 C 0,0 km/h
31.10.2011 08:00 6,7 C 81 % 1023,7 hPa 0,0 l/m 0,0 km/h N 3,7 C 6,7 C 0,0 km/h
31.10.2011 09:00 7,3 C 81 % 1023,7 hPa 0,0 l/m 0,0 km/h N 4,2 C 7,3 C 0,4 km/h
31.10.2011 10:00 8,5 C 80 % 1023,8 hPa 0,0 l/m 0,0 km/h N 5,3 C 8,5 C 2,0 km/h
31.10.2011 11:00 9,5 C 84 % 1023,3 hPa 0,0 l/m 0,1 km/h N 6,9 C 9,5 C 2,0 km/h
31.10.2011 12:00 10,8 C 81 % 1022,8 hPa 0,0 l/m 0,1 km/h N 7,5 C 10,8 C 2,0 km/h
31.10.2011 13:00 11,8 C 79 % 1022,3 hPa 0,0 l/m 0,3 km/h N 8,2 C 11,8 C 2,8 km/h
31.10.2011 14:00 12,5 C 77 % 1021,6 hPa 0,0 l/m 0,1 km/h N 8,6 C 12,5 C 2,0 km/h
31.10.2011 15:00 12,7 C 76 % 1021,2 hPa 0,0 l/m 0,1 km/h N 8,6 C 12,7 C 1,6 km/h
31.10.2011 16:00 12,2 C 78 % 1021,2 hPa 0,0 l/m 0,0 km/h N 8,4 C 12,2 C 0,8 km/h
31.10.2011 17:00 10,8 C 78 % 1021,4 hPa 0,0 l/m 0,0 km/h N 7,1 C 10,8 C 0,0 km/h
31.10.2011 18:00 8,7 C 82 % 1021,8 hPa 0,0 l/m 0,0 km/h N 5,7 C 8,7 C 0,0 km/h
31.10.2011 19:00 7,4 C 84 % 1021,9 hPa 0,0 l/m 0,0 km/h N 4,7 C 7,4 C 0,0 km/h
31.10.2011 20:00 6,4 C 84 % 1021,7 hPa 0,0 l/m 0,0 km/h N 3,9 C 6,4 C 0,0 km/h
31.10.2011 21:00 5,7 C 84 % 1021,8 hPa 0,0 l/m 0,0 km/h N 3,2 C 5,7 C 0,0 km/h
31.10.2011 22:00 5,1 C 84 % 1021,6 hPa 0,0 l/m 0,0 km/h N 2,6 C 5,1 C 0,4 km/h
31.10.2011 23:00 4,5 C 84 % 1021,4 hPa 0,0 l/m 0,0 km/h N 2,0 C 4,5 C 0,0 km/h
01.11.2011 00:00 4,1 C 84 % 1021,0 hPa 0,0 l/m 0,0 km/h N 1,6 C 4,1 C 0,0 km/h
01.11.2011 01:00 3,6 C 84 % 1020,8 hPa 0,0 l/m 0,0 km/h N 1,1 C 3,6 C 0,0 km/h
01.11.2011 02:00 3,8 C 83 % 1020,7 hPa 0,0 l/m 0,0 km/h N 1,2 C 3,8 C 0,8 km/h
01.11.2011 03:00 4,6 C 82 % 1020,4 hPa 0,0 l/m 0,0 km/h N 1,8 C 4,6 C 0,0 km/h
01.11.2011 04:00 5,2 C 82 % 1020,4 hPa 0,0 l/m 0,0 km/h N 2,4 C 5,2 C 0,0 km/h
01.11.2011 05:00 5,4 C 82 % 1020,5 hPa 0,0 l/m 0,0 km/h N 2,5 C 5,4 C 0,0 km/h
01.11.2011 06:00 5,6 C 81 % 1020,7 hPa 0,0 l/m 0,0 km/h N 2,6 C 5,6 C 0,0 km/h
01.11.2011 07:00 5,7 C 81 % 1021,2 hPa 0,0 l/m 0,0 km/h N 2,7 C 5,7 C 0,0 km/h
01.11.2011 08:00 6,0 C 81 % 1021,5 hPa 0,0 l/m 0,0 km/h N 2,9 C 6,0 C 0,0 km/h
01.11.2011 09:00 6,3 C 80 % 1021,6 hPa 0,0 l/m 0,0 km/h N 3,1 C 6,3 C 1,6 km/h
01.11.2011 10:00 6,8 C 79 % 1021,8 hPa 0,0 l/m 0,0 km/h N 3,5 C 6,8 C 1,2 km/h
01.11.2011 11:00 7,4 C 79 % 1021,4 hPa 0,0 l/m 0,0 km/h N 4,0 C 7,4 C 1,2 km/h
01.11.2011 12:00 7,8 C 80 % 1021,0 hPa 0,0 l/m 0,4 km/h N 4,4 C 7,8 C 7,2 km/h
01.11.2011 13:00 7,7 C 81 % 1020,9 hPa 0,0 l/m 0,1 km/h N 4,7 C 7,7 C 3,6 km/h
01.11.2011 14:00 7,8 C 82 % 1020,8 hPa 0,0 l/m 0,3 km/h N 4,9 C 7,8 C 4,4 km/h
01.11.2011 15:00 7,8 C 83 % 1020,5 hPa 0,0 l/m 0,2 km/h N 5,0 C 7,8 C 3,2 km/h
01.11.2011 16:00 7,7 C 83 % 1020,2 hPa 0,0 l/m 0,0 km/h N 5,0 C 7,7 C 1,6 km/h
01.11.2011 17:00 7,6 C 82 % 1020,3 hPa 0,0 l/m 0,0 km/h N 4,7 C 7,6 C 1,6 km/h
01.11.2011 18:00 7,5 C 82 % 1020,6 hPa 0,0 l/m 0,0 km/h N 4,6 C 7,5 C 1,6 km/h
01.11.2011 19:00 7,4 C 82 % 1020,7 hPa 0,0 l/m 0,0 km/h N 4,5 C 7,4 C 0,0 km/h
01.11.2011 20:00 7,2 C 82 % 1020,9 hPa 0,0 l/m 0,4 km/h N 4,3 C 7,2 C 5,2 km/h
01.11.2011 21:00 6,9 C 83 % 1021,1 hPa 0,0 l/m 0,4 km/h N 4,2 C 6,9 C 3,6 km/h
01.11.2011 22:00 6,8 C 83 % 1021,2 hPa 0,0 l/m 0,0 km/h N 4,1 C 6,8 C 2,4 km/h
01.11.2011 23:00 6,5 C 83 % 1021,2 hPa 0,0 l/m 0,4 km/h N 3,9 C 6,5 C 4,8 km/h
02.11.2011 00:00 6,3 C 83 % 1021,3 hPa 0,0 l/m 0,5 km/h S 3,7 C 6,3 C 5,6 km/h
02.11.2011 01:00 6,0 C 83 % 1021,2 hPa 0,0 l/m 0,3 km/h N 3,4 C 6,0 C 4,8 km/h
02.11.2011 02:00 5,9 C 83 % 1021,0 hPa 0,0 l/m 0,0 km/h N 3,2 C 5,9 C 0,4 km/h
02.11.2011 03:00 5,9 C 83 % 1020,9 hPa 0,0 l/m 0,3 km/h N 3,2 C 5,9 C 4,0 km/h
02.11.2011 04:00 5,9 C 83 % 1021,0 hPa 0,0 l/m 0,3 km/h N 3,3 C 5,9 C 4,0 km/h
02.11.2011 05:00 6,0 C 84 % 1021,1 hPa 0,0 l/m 0,1 km/h N 3,4 C 6,0 C 2,4 km/h
02.11.2011 06:00 6,1 C 83 % 1021,2 hPa 0,0 l/m 0,1 km/h N 3,4 C 6,1 C 1,6 km/h
02.11.2011 07:00 6,2 C 83 % 1021,6 hPa 0,0 l/m 0,6 km/h S 3,5 C 6,2 C 3,6 km/h
02.11.2011 08:00 6,2 C 84 % 1021,7 hPa 0,0 l/m 1,2 km/h S-SO 3,6 C 6,2 C 8,1 km/h
02.11.2011 09:00 6,5 C 85 % 1021,5 hPa 0,0 l/m 2,1 km/h S 4,1 C 6,5 C 11,7 km/h
02.11.2011 10:00 7,0 C 85 % 1021,2 hPa 0,0 l/m 1,0 km/h S-SW 4,7 C 7,0 C 8,4 km/h
02.11.2011 11:00 7,3 C 85 % 1020,8 hPa 0,0 l/m 0,9 km/h S 5,0 C 7,3 C 6,4 km/h
02.11.2011 12:00 7,9 C 84 % 1020,3 hPa 0,0 l/m 0,1 km/h N 5,4 C 7,9 C 2,8 km/h
02.11.2011 13:00 8,3 C 84 % 1019,9 hPa 0,0 l/m 0,1 km/h N 5,7 C 8,3 C 2,8 km/h
02.11.2011 14:00 8,4 C 84 % 1019,7 hPa 0,0 l/m 0,4 km/h N 5,9 C 8,4 C 4,4 km/h
02.11.2011 15:00 8,2 C 84 % 1019,3 hPa 0,0 l/m 0,4 km/h N 5,7 C 8,2 C 4,4 km/h
02.11.2011 16:00 8,0 C 84 % 1018,9 hPa 0,0 l/m 0,2 km/h N 5,5 C 8,0 C 4,0 km/h
02.11.2011 17:00 7,8 C 83 % 1018,9 hPa 0,0 l/m 0,2 km/h N 5,1 C 7,8 C 4,0 km/h
02.11.2011 18:00 7,5 C 83 % 1018,9 hPa 0,0 l/m 0,2 km/h N 4,8 C 7,5 C 3,6 km/h
02.11.2011 19:00 7,3 C 83 % 1018,7 hPa 0,0 l/m 0,1 km/h N 4,6 C 7,3 C 2,0 km/h
02.11.2011 20:00 6,8 C 83 % 1018,5 hPa 0,0 l/m 0,0 km/h N 4,2 C 6,8 C 0,4 km/h
02.11.2011 21:00 5,9 C 84 % 1018,3 hPa 0,0 l/m 0,0 km/h N 3,4 C 5,9 C 0,0 km/h
02.11.2011 22:00 4,9 C 84 % 1017,9 hPa 0,0 l/m 0,0 km/h N 2,4 C 4,9 C 0,0 km/h
02.11.2011 23:00 3,9 C 84 % 1017,6 hPa 0,0 l/m 0,0 km/h N 1,4 C 3,9 C 0,0 km/h
03.11.2011 00:00 3,6 C 84 % 1017,3 hPa 0,0 l/m 0,0 km/h N 1,2 C 3,6 C 0,0 km/h
03.11.2011 01:00 3,8 C 83 % 1017,1 hPa 0,0 l/m 0,0 km/h N 1,2 C 3,8 C 0,8 km/h
03.11.2011 02:00 4,2 C 82 % 1016,9 hPa 0,0 l/m 0,0 km/h N 1,4 C 4,2 C 1,6 km/h
03.11.2011 03:00 5,3 C 81 % 1016,6 hPa 0,0 l/m 0,0 km/h N 2,3 C 5,3 C 3,2 km/h
03.11.2011 04:00 5,8 C 81 % 1016,5 hPa 0,0 l/m 0,1 km/h N 2,8 C 5,8 C 2,8 km/h
03.11.2011 05:00 5,9 C 81 % 1016,4 hPa 0,0 l/m 0,1 km/h N 2,9 C 5,9 C 2,4 km/h
03.11.2011 06:00 5,9 C 81 % 1016,3 hPa 0,0 l/m 0,2 km/h N 2,9 C 5,9 C 4,0 km/h
03.11.2011 07:00 6,1 C 81 % 1016,5 hPa 0,0 l/m 0,2 km/h N 3,1 C 6,1 C 3,6 km/h
03.11.2011 08:00 6,4 C 81 % 1016,5 hPa 0,0 l/m 0,2 km/h N 3,3 C 6,4 C 3,6 km/h
03.11.2011 09:00 6,7 C 81 % 1016,6 hPa 0,0 l/m 0,3 km/h N 3,7 C 6,7 C 5,2 km/h
03.11.2011 10:00 7,0 C 81 % 1016,4 hPa 0,0 l/m 0,5 km/h N 3,9 C 7,0 C 6,0 km/h
03.11.2011 11:00 7,2 C 82 % 1015,8 hPa 0,0 l/m 0,4 km/h N 4,4 C 7,2 C 5,2 km/h
03.11.2011 12:00 7,8 C 83 % 1015,1 hPa 0,0 l/m 0,6 km/h N 5,2 C 7,8 C 6,8 km/h
03.11.2011 13:00 8,0 C 85 % 1014,7 hPa 0,0 l/m 0,9 km/h O 5,6 C 8,0 C 5,2 km/h
03.11.2011 14:00 7,9 C 85 % 1014,3 hPa 0,0 l/m 0,5 km/h N 5,5 C 7,9 C 4,4 km/h
03.11.2011 15:00 7,8 C 85 % 1014,0 hPa 0,0 l/m 0,4 km/h N 5,4 C 7,8 C 5,6 km/h
03.11.2011 16:00 7,7 C 85 % 1013,6 hPa 0,0 l/m 0,1 km/h N 5,4 C 7,7 C 4,8 km/h
03.11.2011 17:00 8,0 C 85 % 1013,3 hPa 0,0 l/m 0,4 km/h N 5,5 C 8,0 C 4,8 km/h
03.11.2011 18:00 7,9 C 84 % 1013,4 hPa 0,0 l/m 0,6 km/h SO 5,4 C 7,9 C 5,2 km/h
03.11.2011 19:00 7,8 C 84 % 1013,1 hPa 0,0 l/m 1,2 km/h NO 5,2 C 7,8 C 7,2 km/h
03.11.2011 20:00 7,7 C 83 % 1012,8 hPa 0,0 l/m 1,1 km/h O 5,0 C 7,7 C 7,6 km/h
03.11.2011 21:00 7,5 C 83 % 1012,7 hPa 0,0 l/m 1,3 km/h O-NO 4,8 C 7,5 C 7,2 km/h
03.11.2011 22:00 7,4 C 83 % 1012,2 hPa 0,0 l/m 0,8 km/h N 4,6 C 7,4 C 6,0 km/h
03.11.2011 23:00 7,5 C 82 % 1011,6 hPa 0,0 l/m 0,4 km/h N 4,6 C 7,5 C 3,2 km/h
04.11.2011 00:00 7,8 C 82 % 1011,2 hPa 0,0 l/m 0,5 km/h N 4,9 C 7,8 C 6,0 km/h
04.11.2011 01:00 7,7 C 82 % 1010,9 hPa 0,0 l/m 0,4 km/h N 4,8 C 7,7 C 4,0 km/h
04.11.2011 02:00 7,6 C 82 % 1010,5 hPa 0,0 l/m 0,4 km/h N 4,7 C 7,6 C 4,4 km/h
04.11.2011 03:00 7,6 C 81 % 1010,2 hPa 0,0 l/m 0,4 km/h N 4,6 C 7,6 C 4,8 km/h
04.11.2011 04:00 7,6 C 81 % 1010,1 hPa 0,0 l/m 0,2 km/h N 4,6 C 7,6 C 2,8 km/h
04.11.2011 05:00 7,7 C 81 % 1010,3 hPa 0,0 l/m 0,1 km/h N 4,7 C 7,7 C 2,0 km/h
04.11.2011 06:00 7,5 C 82 % 1010,4 hPa 0,0 l/m 0,1 km/h N 4,6 C 7,5 C 2,4 km/h
04.11.2011 07:00 7,3 C 82 % 1011,0 hPa 0,0 l/m 0,1 km/h N 4,4 C 7,3 C 1,2 km/h
04.11.2011 08:00 7,3 C 82 % 1011,5 hPa 0,0 l/m 0,0 km/h N 4,5 C 7,3 C 1,6 km/h
04.11.2011 09:00 7,5 C 82 % 1011,5 hPa 0,0 l/m 0,0 km/h N 4,6 C 7,5 C 0,8 km/h
04.11.2011 10:00 7,9 C 82 % 1011,9 hPa 0,0 l/m 0,0 km/h N 5,0 C 7,9 C 1,2 km/h
04.11.2011 11:00 8,4 C 82 % 1012,0 hPa 0,0 l/m 0,0 km/h N 5,5 C 8,4 C 1,6 km/h
04.11.2011 12:00 8,9 C 83 % 1011,6 hPa 0,0 l/m 0,1 km/h N 6,1 C 8,9 C 2,4 km/h
04.11.2011 13:00 9,9 C 84 % 1011,3 hPa 0,0 l/m 0,2 km/h N 7,2 C 9,9 C 2,8 km/h
04.11.2011 14:00 10,6 C 84 % 1011,2 hPa 0,0 l/m 0,7 km/h N-NW 8,0 C 10,6 C 4,0 km/h
04.11.2011 15:00 11,0 C 81 % 1011,0 hPa 0,0 l/m 1,2 km/h N-NW 7,9 C 11,0 C 4,8 km/h
04.11.2011 16:00 10,6 C 81 % 1010,9 hPa 0,0 l/m 0,0 km/h N 7,6 C 10,6 C 1,2 km/h
04.11.2011 17:00 9,8 C 83 % 1011,2 hPa 0,0 l/m 0,0 km/h N 7,0 C 9,8 C 1,2 km/h
04.11.2011 18:00 8,5 C 84 % 1011,5 hPa 0,0 l/m 0,0 km/h N 5,9 C 8,5 C 0,0 km/h
04.11.2011 19:00 7,6 C 85 % 1011,5 hPa 0,0 l/m 0,0 km/h N 5,1 C 7,6 C 0,0 km/h
04.11.2011 20:00 7,3 C 84 % 1011,6 hPa 0,0 l/m 0,0 km/h N 4,8 C 7,3 C 0,0 km/h
04.11.2011 21:00 7,2 C 84 % 1012,0 hPa 0,0 l/m 0,0 km/h N 4,7 C 7,2 C 0,0 km/h
04.11.2011 22:00 7,4 C 84 % 1011,8 hPa 0,0 l/m 0,0 km/h N 4,8 C 7,4 C 0,0 km/h
04.11.2011 23:00 7,8 C 83 % 1011,7 hPa 0,0 l/m 0,0 km/h N 5,1 C 7,8 C 0,0 km/h
05.11.2011 00:00 8,1 C 83 % 1011,7 hPa 0,0 l/m 0,0 km/h N 5,3 C 8,1 C 0,4 km/h
05.11.2011 01:00 8,1 C 83 % 1011,5 hPa 0,0 l/m 0,0 km/h N 5,4 C 8,1 C 0,0 km/h
05.11.2011 02:00 8,1 C 83 % 1011,3 hPa 0,0 l/m 0,0 km/h N 5,4 C 8,1 C 0,0 km/h
05.11.2011 03:00 8,2 C 83 % 1011,2 hPa 0,0 l/m 0,0 km/h N 5,5 C 8,2 C 0,0 km/h
05.11.2011 04:00 8,3 C 83 % 1011,2 hPa 0,0 l/m 0,0 km/h N 5,6 C 8,3 C 0,0 km/h
05.11.2011 05:00 8,3 C 83 % 1011,2 hPa 0,0 l/m 0,0 km/h N 5,6 C 8,3 C 0,0 km/h
05.11.2011 06:00 8,4 C 83 % 1011,3 hPa 0,0 l/m 0,0 km/h N 5,7 C 8,4 C 0,0 km/h
05.11.2011 07:00 8,6 C 83 % 1011,7 hPa 0,0 l/m 0,0 km/h N 5,8 C 8,6 C 0,0 km/h
05.11.2011 08:00 8,8 C 82 % 1012,1 hPa 0,0 l/m 0,0 km/h N 5,9 C 8,8 C 0,0 km/h
05.11.2011 09:00 9,1 C 82 % 1012,2 hPa 0,0 l/m 0,0 km/h N 6,2 C 9,1 C 0,4 km/h
05.11.2011 10:00 9,6 C 81 % 1012,4 hPa 0,0 l/m 0,0 km/h N 6,5 C 9,6 C 0,0 km/h
05.11.2011 11:00 10,1 C 81 % 1012,2 hPa 0,0 l/m 0,0 km/h N 6,9 C 10,1 C 0,8 km/h
05.11.2011 12:00 10,9 C 80 % 1011,9 hPa 0,0 l/m 0,2 km/h N 7,7 C 10,9 C 3,2 km/h
05.11.2011 13:00 11,6 C 83 % 1011,6 hPa 0,0 l/m 0,7 km/h S 8,7 C 11,6 C 5,6 km/h
05.11.2011 14:00 11,9 C 84 % 1011,4 hPa 0,0 l/m 0,1 km/h N 9,3 C 11,9 C 2,0 km/h
05.11.2011 15:00 12,0 C 84 % 1011,5 hPa 0,0 l/m 0,0 km/h N 9,4 C 12,0 C 0,4 km/h
05.11.2011 16:00 10,9 C 84 % 1011,6 hPa 0,0 l/m 0,0 km/h N 8,3 C 10,9 C 0,0 km/h
05.11.2011 17:00 9,0 C 84 % 1012,0 hPa 0,0 l/m 0,0 km/h N 6,5 C 9,0 C 0,0 km/h
05.11.2011 18:00 7,9 C 85 % 1012,4 hPa 0,0 l/m 0,0 km/h N 5,5 C 7,9 C 0,0 km/h
05.11.2011 19:00 7,2 C 85 % 1012,7 hPa 0,0 l/m 0,0 km/h N 4,8 C 7,2 C 0,0 km/h
05.11.2011 20:00 7,9 C 83 % 1012,8 hPa 0,0 l/m 0,0 km/h N 5,1 C 7,9 C 0,4 km/h
05.11.2011 21:00 8,1 C 83 % 1013,0 hPa 0,0 l/m 0,0 km/h N 5,3 C 8,1 C 0,4 km/h
05.11.2011 22:00 7,9 C 82 % 1013,4 hPa 0,0 l/m 0,0 km/h N 5,0 C 7,9 C 0,0 km/h
05.11.2011 23:00 9,5 C 80 % 1014,0 hPa 0,0 l/m 0,1 km/h N 6,2 C 9,5 C 2,4 km/h
06.11.2011 00:00 9,7 C 80 % 1014,4 hPa 0,0 l/m 0,1 km/h N 6,5 C 9,7 C 4,0 km/h
06.11.2011 01:00 9,6 C 82 % 1014,8 hPa 0,0 l/m 0,1 km/h N 6,6 C 9,6 C 1,6 km/h
06.11.2011 02:00 9,2 C 84 % 1015,2 hPa 0,0 l/m 0,2 km/h N 6,5 C 9,2 C 3,6 km/h
06.11.2011 03:00 8,8 C 85 % 1015,5 hPa 0,0 l/m 0,1 km/h N 6,4 C 8,8 C 2,4 km/h
06.11.2011 04:00 8,0 C 85 % 1016,0 hPa 0,0 l/m 0,0 km/h N 5,5 C 8,0 C 0,4 km/h
06.11.2011 05:00 7,0 C 85 % 1016,5 hPa 0,0 l/m 0,0 km/h N 4,6 C 7,0 C 0,8 km/h
06.11.2011 06:00 6,4 C 85 % 1017,1 hPa 0,0 l/m 0,0 km/h N 4,1 C 6,4 C 0,0 km/h
06.11.2011 07:00 5,9 C 85 % 1017,8 hPa 0,0 l/m 0,0 km/h N 3,6 C 5,9 C 0,0 km/h
06.11.2011 08:00 6,1 C 85 % 1018,3 hPa 0,0 l/m 0,0 km/h N 3,7 C 6,1 C 0,8 km/h
06.11.2011 09:00 8,0 C 84 % 1018,3 hPa 0,0 l/m 0,1 km/h N 5,4 C 8,0 C 2,4 km/h
06.11.2011 10:00 10,0 C 82 % 1018,5 hPa 0,0 l/m 0,3 km/h N 7,0 C 10,0 C 3,2 km/h
06.11.2011 11:00 11,1 C 76 % 1018,4 hPa 0,0 l/m 0,6 km/h O-SO 7,0 C 11,1 C 5,6 km/h
06.11.2011 12:00 11,9 C 73 % 1018,0 hPa 0,0 l/m 0,5 km/h N 7,3 C 11,9 C 6,0 km/h
06.11.2011 13:00 12,5 C 71 % 1017,8 hPa 0,0 l/m 0,3 km/h N 7,5 C 12,5 C 4,4 km/h
06.11.2011 14:00 13,1 C 69 % 1017,8 hPa 0,0 l/m 0,5 km/h N 7,5 C 13,1 C 4,8 km/h
06.11.2011 15:00 13,0 C 68 % 1018,2 hPa 0,0 l/m 0,3 km/h N 7,2 C 13,0 C 4,8 km/h
06.11.2011 16:00 11,9 C 72 % 1018,7 hPa 0,0 l/m 0,0 km/h N 6,9 C 11,9 C 2,4 km/h
06.11.2011 17:00 10,1 C 77 % 1019,3 hPa 0,0 l/m 0,0 km/h N 6,1 C 10,1 C 0,0 km/h
06.11.2011 18:00 9,1 C 80 % 1019,9 hPa 0,0 l/m 0,0 km/h N 5,8 C 9,1 C 0,0 km/h
06.11.2011 19:00 8,6 C 82 % 1020,3 hPa 0,0 l/m 0,0 km/h N 5,6 C 8,6 C 0,0 km/h
06.11.2011 20:00 7,6 C 82 % 1020,8 hPa 0,0 l/m 0,0 km/h N 4,7 C 7,6 C 0,0 km/h
06.11.2011 21:00 6,8 C 84 % 1021,0 hPa 0,0 l/m 0,0 km/h N 4,3 C 6,8 C 0,4 km/h
06.11.2011 22:00 6,3 C 84 % 1020,9 hPa 0,0 l/m 0,0 km/h N 3,8 C 6,3 C 0,4 km/h
06.11.2011 23:00 6,1 C 84 % 1020,9 hPa 0,0 l/m 0,0 km/h N 3,6 C 6,1 C 1,2 km/h
Min-Datum _ 01.11.11 06.11.11 04.11.11 - 31.10.11 - 01.11.11 01.11.11 31.10.11
_ Min-Zeit 01:45 14:30 03:30 - 00:00 - 01:45 01:45 00:00
Minimum _ 3,4 C 67 % 1010,1 hPa - 0,0 km/h - 1,0 C 3,4 C 0,0 km/h
Max-Datum _ 06.11.11 02.11.11 31.10.11 31.10.11 02.11.11 - 05.11.11 06.11.11 02.11.11
_ Max-Zeit 14:30 09:30 07:45 00:00 09:15 - 15:15 14:30 09:15
Maximum _ 13,3 C 85 % 1023,8 hPa 0,0 l/m 3,4 km/h
S
- 9,5 C 13,3 C 14,5 km/h
S
Durchschnitt _ 7,7 C 82 % 1017,1 hPa #0,0 l/m 0,2 km/h S 4,9 C 7,7 C 2,2 km/h